Minerva Zen — SVBN3 — position and weather

sailwx.info

Track history (hours):
 
Tides and Currents Weather Stations Pressure Air Temp Water Temp Dewpoint Dewpoint Depression Visibility Wind Speed Wind Dir Waves Ship Positions

Minerva Zen

Last reported at 2016-Jul-24 08:17 UTC. Time now 2016-Jul-25 06:10 UTC.
Position N 37°13' E 015°13'.

Length 183 m; draft 11.8 m.

Type: Ship. MMSI: 241190000.

Date/timePositionNaut miles runAvg speedWind from/ knotsBaromVisibWave heightAir tempDewpointWater temp
2016-Jul-24 08:17N 37°13' E 015°13'12 1.6
2016-Jul-24 00:29N 37°10' E 015°28'1212.6
2016-Jul-23 23:33N 37°09' E 015°42'1312.9
2016-Jul-23 22:33N 37°06' E 015°58'1312.8
2016-Jul-23 21:33N 37°04' E 016°14'34711.6
2016-Jul-22 15:33N 36°41' E 023°27'1211.9
2016-Jul-22 14:33N 36°51' E 023°34'1212.3
2016-Jul-22 13:33N 37°02' E 023°42'5112.7
2016-Jul-22 09:33N 37°45' E 024°15'1211.9
2016-Jul-22 08:33N 37°52' E 024°27'3712.4
2016-Jul-22 05:33N 38°24' E 024°53'10112.5
2016-Jul-21 21:27N 39°56' E 025°46'  
2016-Jul-19 16:31N 44°20' E 037°10'1212.1
2016-Jul-19 15:32N 44°26' E 037°25'1212.0
2016-Jul-19 14:33N 44°31' E 037°39'1111.3
2016-Jul-19 13:33N 44°39' E 037°51'3 3.2
2016-Jul-19 12:31N 44°43' E 037°50'0 0.0
2016-Jul-19 11:33N 44°43' E 037°50'0 0.0
2016-Jul-19 10:33N 44°43' E 037°50'0 0.0
2016-Jul-19 09:33N 44°43' E 037°50'0 0.0
2016-Jul-19 08:33N 44°43' E 037°50'0 0.0
2016-Jul-19 04:33N 44°43' E 037°50'0 0.0
2016-Jul-19 03:33N 44°43' E 037°50'0 0.0
2016-Jul-19 02:33N 44°43' E 037°50'0 0.0
2016-Jul-19 01:33N 44°43' E 037°50'0 0.0
2016-Jul-19 00:34N 44°43' E 037°50'0 0.0
2016-Jul-18 23:33N 44°43' E 037°50'0 0.0
2016-Jul-18 22:33N 44°43' E 037°50'0 0.0
2016-Jul-18 21:34N 44°43' E 037°50'0 0.0
2016-Jul-18 20:33N 44°43' E 037°50'0 0.0
2016-Jul-18 19:33N 44°43' E 037°50'0 0.0
2016-Jul-18 18:33N 44°43' E 037°50'0 0.0
2016-Jul-18 17:33N 44°43' E 037°50'0 0.0
2016-Jul-18 16:33N 44°43' E 037°50'0 0.0
2016-Jul-18 15:33N 44°43' E 037°50'0 0.0
2016-Jul-18 14:33N 44°43' E 037°50'0 0.0
2016-Jul-18 13:33N 44°43' E 037°50'0 0.0
2016-Jul-18 12:33N 44°43' E 037°50'0 0.0
2016-Jul-18 11:33N 44°43' E 037°50'0 0.0
2016-Jul-18 10:33N 44°43' E 037°50'0 0.0
2016-Jul-18 09:33N 44°43' E 037°50'0 0.0
2016-Jul-18 08:33N 44°43' E 037°50'0 0.0
2016-Jul-18 07:33N 44°43' E 037°50'0 0.0
2016-Jul-18 06:33N 44°43' E 037°50'0 0.0
2016-Jul-18 05:33N 44°43' E 037°50'0 0.0
2016-Jul-18 04:33N 44°43' E 037°50'0 0.0
2016-Jul-18 03:33N 44°43' E 037°50'0 0.0
2016-Jul-18 02:33N 44°43' E 037°50'0 0.0
2016-Jul-18 01:33N 44°43' E 037°50'0 0.0
2016-Jul-18 00:33N 44°43' E 037°50'0 0.0
2016-Jul-17 23:33N 44°43' E 037°50'0 0.0
2016-Jul-17 22:33N 44°43' E 037°50'0 0.0
2016-Jul-17 21:33N 44°43' E 037°50'0 0.0
2016-Jul-17 20:34N 44°43' E 037°50'0 0.0
2016-Jul-17 19:33N 44°43' E 037°50'0 0.0
2016-Jul-17 18:33N 44°43' E 037°50'0 0.0
2016-Jul-17 17:33N 44°43' E 037°50'0 0.0
2016-Jul-17 16:33N 44°43' E 037°50'0 0.0
2016-Jul-17 15:33N 44°43' E 037°50'0 0.0
2016-Jul-17 14:33N 44°43' E 037°50'0 0.0
2016-Jul-17 13:33N 44°43' E 037°50'0 0.0
2016-Jul-17 12:33N 44°43' E 037°50'0 0.0
2016-Jul-17 11:33N 44°43' E 037°50'0 0.0
2016-Jul-17 10:33N 44°43' E 037°50'1 1.0
2016-Jul-17 09:33N 44°42' E 037°50'8 8.1
2016-Jul-17 08:33N 44°34' E 037°52'1313.5
2016-Jul-17 07:33N 44°27' E 037°36'1414.5
2016-Jul-17 06:33N 44°20' E 037°18'2814.1
2016-Jul-17 04:33N 44°07' E 036°43'1414.1
2016-Jul-17 03:33N 44°01' E 036°25'1413.5
2016-Jul-17 02:30N 43°53' E 036°08'2 2.5
2016-Jul-17 01:33N 43°55' E 036°10'8714.1
2016-Jul-16 19:23N 43°15' E 034°24'285 7.3
2016-Jul-15 04:32N 40°49' E 028°55'1 0.8
2016-Jul-15 03:31N 40°50' E 028°55'3110.4
2016-Jul-15 00:30N 40°47' E 028°14'1211.8
2016-Jul-14 23:31N 40°45' E 027°59'8011.0
2016-Jul-14 16:16N 40°12' E 026°23'15 8.6
2016-Jul-14 14:34N 40°01' E 026°10'1010.5
2016-Jul-14 13:34N 39°57' E 025°58'7 7.3
2016-Jul-14 12:34N 39°59' E 025°49'1 0.5
2016-Jul-14 11:33N 39°60' E 025°48'1 0.6
2016-Jul-14 10:34N 39°60' E 025°48'1 0.7
2016-Jul-14 09:33N 40°01' E 025°47'4 3.9
2016-Jul-14 08:34N 39°57' E 025°46'  
Track history (hours):
 
Tides and Currents Weather Stations Pressure Air Temp Water Temp Dewpoint Dewpoint Depression Visibility Wind Speed Wind Dir Waves Ship Positions

Minerva Zen

Last reported at 2016-Jul-24 08:17 UTC. Time now 2016-Jul-25 06:10 UTC.
Position N 37°13' E 015°13'.

Length 183 m; draft 11.8 m.

Type: Ship. MMSI: 241190000.

Date/timePositionNaut miles runAvg speedWind from/ knotsBaromVisibWave heightAir tempDewpointWater temp
2016-Jul-24 08:17N 37°13' E 015°13'12 1.6
2016-Jul-24 00:29N 37°10' E 015°28'1212.6
2016-Jul-23 23:33N 37°09' E 015°42'1312.9
2016-Jul-23 22:33N 37°06' E 015°58'1312.8
2016-Jul-23 21:33N 37°04' E 016°14'34711.6
2016-Jul-22 15:33N 36°41' E 023°27'1211.9
2016-Jul-22 14:33N 36°51' E 023°34'1212.3
2016-Jul-22 13:33N 37°02' E 023°42'5112.7
2016-Jul-22 09:33N 37°45' E 024°15'1211.9
2016-Jul-22 08:33N 37°52' E 024°27'3712.4
2016-Jul-22 05:33N 38°24' E 024°53'10112.5
2016-Jul-21 21:27N 39°56' E 025°46'  
2016-Jul-19 16:31N 44°20' E 037°10'1212.1
2016-Jul-19 15:32N 44°26' E 037°25'1212.0
2016-Jul-19 14:33N 44°31' E 037°39'1111.3
2016-Jul-19 13:33N 44°39' E 037°51'3 3.2
2016-Jul-19 12:31N 44°43' E 037°50'0 0.0
2016-Jul-19 11:33N 44°43' E 037°50'0 0.0
2016-Jul-19 10:33N 44°43' E 037°50'0 0.0
2016-Jul-19 09:33N 44°43' E 037°50'0 0.0
2016-Jul-19 08:33N 44°43' E 037°50'0 0.0
2016-Jul-19 04:33N 44°43' E 037°50'0 0.0
2016-Jul-19 03:33N 44°43' E 037°50'0 0.0
2016-Jul-19 02:33N 44°43' E 037°50'0 0.0
2016-Jul-19 01:33N 44°43' E 037°50'0 0.0
2016-Jul-19 00:34N 44°43' E 037°50'0 0.0
2016-Jul-18 23:33N 44°43' E 037°50'0 0.0
2016-Jul-18 22:33N 44°43' E 037°50'0 0.0
2016-Jul-18 21:34N 44°43' E 037°50'0 0.0
2016-Jul-18 20:33N 44°43' E 037°50'0 0.0
2016-Jul-18 19:33N 44°43' E 037°50'0 0.0
2016-Jul-18 18:33N 44°43' E 037°50'0 0.0
2016-Jul-18 17:33N 44°43' E 037°50'0 0.0
2016-Jul-18 16:33N 44°43' E 037°50'0 0.0
2016-Jul-18 15:33N 44°43' E 037°50'0 0.0
2016-Jul-18 14:33N 44°43' E 037°50'0 0.0
2016-Jul-18 13:33N 44°43' E 037°50'0 0.0
2016-Jul-18 12:33N 44°43' E 037°50'0 0.0
2016-Jul-18 11:33N 44°43' E 037°50'0 0.0
2016-Jul-18 10:33N 44°43' E 037°50'0 0.0
2016-Jul-18 09:33N 44°43' E 037°50'0 0.0
2016-Jul-18 08:33N 44°43' E 037°50'0 0.0
2016-Jul-18 07:33N 44°43' E 037°50'0 0.0
2016-Jul-18 06:33N 44°43' E 037°50'0 0.0
2016-Jul-18 05:33N 44°43' E 037°50'0 0.0
2016-Jul-18 04:33N 44°43' E 037°50'0 0.0
2016-Jul-18 03:33N 44°43' E 037°50'0 0.0
2016-Jul-18 02:33N 44°43' E 037°50'0 0.0
2016-Jul-18 01:33N 44°43' E 037°50'0 0.0
2016-Jul-18 00:33N 44°43' E 037°50'0 0.0
2016-Jul-17 23:33N 44°43' E 037°50'0 0.0
2016-Jul-17 22:33N 44°43' E 037°50'0 0.0
2016-Jul-17 21:33N 44°43' E 037°50'0 0.0
2016-Jul-17 20:34N 44°43' E 037°50'0 0.0
2016-Jul-17 19:33N 44°43' E 037°50'0 0.0
2016-Jul-17 18:33N 44°43' E 037°50'0 0.0
2016-Jul-17 17:33N 44°43' E 037°50'0 0.0
2016-Jul-17 16:33N 44°43' E 037°50'0 0.0
2016-Jul-17 15:33N 44°43' E 037°50'0 0.0
2016-Jul-17 14:33N 44°43' E 037°50'0 0.0
2016-Jul-17 13:33N 44°43' E 037°50'0 0.0
2016-Jul-17 12:33N 44°43' E 037°50'0 0.0
2016-Jul-17 11:33N 44°43' E 037°50'0 0.0
2016-Jul-17 10:33N 44°43' E 037°50'1 1.0
2016-Jul-17 09:33N 44°42' E 037°50'8 8.1
2016-Jul-17 08:33N 44°34' E 037°52'1313.5
2016-Jul-17 07:33N 44°27' E 037°36'1414.5
2016-Jul-17 06:33N 44°20' E 037°18'2814.1
2016-Jul-17 04:33N 44°07' E 036°43'1414.1
2016-Jul-17 03:33N 44°01' E 036°25'1413.5
2016-Jul-17 02:30N 43°53' E 036°08'2 2.5
2016-Jul-17 01:33N 43°55' E 036°10'8714.1
2016-Jul-16 19:23N 43°15' E 034°24'285 7.3
2016-Jul-15 04:32N 40°49' E 028°55'1 0.8
2016-Jul-15 03:31N 40°50' E 028°55'3110.4
2016-Jul-15 00:30N 40°47' E 028°14'1211.8
2016-Jul-14 23:31N 40°45' E 027°59'8011.0
2016-Jul-14 16:16N 40°12' E 026°23'15 8.6
2016-Jul-14 14:34N 40°01' E 026°10'1010.5
2016-Jul-14 13:34N 39°57' E 025°58'7 7.3
2016-Jul-14 12:34N 39°59' E 025°49'1 0.5
2016-Jul-14 11:33N 39°60' E 025°48'1 0.6
2016-Jul-14 10:34N 39°60' E 025°48'1 0.7
2016-Jul-14 09:33N 40°01' E 025°47'4 3.9
2016-Jul-14 08:34N 39°57' E 025°46'  

Dump ship's entire track history